sensor_id;sensor_type;location;lat;lon;timestamp;temperature;humidity
23259;DHT22;11798;51.528;7.240;2022-07-22T00:00:14;17.10;99.90
23259;DHT22;11798;51.528;7.240;2022-07-22T00:02:39;17.10;99.90
23259;DHT22;11798;51.528;7.240;2022-07-22T00:05:06;17.10;99.90
23259;DHT22;11798;51.528;7.240;2022-07-22T00:07:32;17.10;99.90
23259;DHT22;11798;51.528;7.240;2022-07-22T00:09:58;17.00;99.90
23259;DHT22;11798;51.528;7.240;2022-07-22T00:12:23;17.10;99.90
23259;DHT22;11798;51.528;7.240;2022-07-22T00:14:49;17.10;99.90
23259;DHT22;11798;51.528;7.240;2022-07-22T00:17:15;17.10;99.90
23259;DHT22;11798;51.528;7.240;2022-07-22T00:19:40;17.10;99.90
23259;DHT22;11798;51.528;7.240;2022-07-22T00:22:06;17.10;99.90
23259;DHT22;11798;51.528;7.240;2022-07-22T00:24:32;17.10;99.90
23259;DHT22;11798;51.528;7.240;2022-07-22T00:26:58;17.10;99.90
23259;DHT22;11798;51.528;7.240;2022-07-22T00:29:24;17.10;99.90
23259;DHT22;11798;51.528;7.240;2022-07-22T00:31:49;17.10;99.90
23259;DHT22;11798;51.528;7.240;2022-07-22T00:34:15;17.10;99.90
23259;DHT22;11798;51.528;7.240;2022-07-22T00:36:40;17.10;99.90
23259;DHT22;11798;51.528;7.240;2022-07-22T00:39:06;17.00;99.90
23259;DHT22;11798;51.528;7.240;2022-07-22T00:41:32;17.10;99.90
23259;DHT22;11798;51.528;7.240;2022-07-22T00:46:28;17.10;99.90
23259;DHT22;11798;51.528;7.240;2022-07-22T00:48:55;17.10;99.90
23259;DHT22;11798;51.528;7.240;2022-07-22T00:51:23;17.10;99.90
23259;DHT22;11798;51.528;7.240;2022-07-22T00:53:49;17.10;99.90
23259;DHT22;11798;51.528;7.240;2022-07-22T00:56:16;17.10;99.90
23259;DHT22;11798;51.528;7.240;2022-07-22T00:58:42;17.10;99.90
23259;DHT22;11798;51.528;7.240;2022-07-22T01:01:08;17.10;99.90
23259;DHT22;11798;51.528;7.240;2022-07-22T01:03:35;17.00;99.90
23259;DHT22;11798;51.528;7.240;2022-07-22T01:06:00;16.90;99.90
23259;DHT22;11798;51.528;7.240;2022-07-22T01:08:26;17.00;99.90
23259;DHT22;11798;51.528;7.240;2022-07-22T01:10:52;17.00;99.90
23259;DHT22;11798;51.528;7.240;2022-07-22T01:13:18;17.00;99.90
23259;DHT22;11798;51.528;7.240;2022-07-22T01:15:44;16.90;99.90
23259;DHT22;11798;51.528;7.240;2022-07-22T01:18:09;17.00;99.90
23259;DHT22;11798;51.528;7.240;2022-07-22T01:20:36;17.00;99.90
23259;DHT22;11798;51.528;7.240;2022-07-22T01:23:01;17.00;99.90
23259;DHT22;11798;51.528;7.240;2022-07-22T01:25:27;17.00;99.90
23259;DHT22;11798;51.528;7.240;2022-07-22T01:27:53;16.90;99.90
23259;DHT22;11798;51.528;7.240;2022-07-22T01:30:19;16.90;99.90
23259;DHT22;11798;51.528;7.240;2022-07-22T01:32:45;16.90;99.90
23259;DHT22;11798;51.528;7.240;2022-07-22T01:35:11;16.90;99.90
23259;DHT22;11798;51.528;7.240;2022-07-22T01:37:36;16.80;99.90
23259;DHT22;11798;51.528;7.240;2022-07-22T01:40:04;16.70;99.90
23259;DHT22;11798;51.528;7.240;2022-07-22T01:42:30;16.80;99.90
23259;DHT22;11798;51.528;7.240;2022-07-22T01:44:55;16.80;99.90
23259;DHT22;11798;51.528;7.240;2022-07-22T01:47:21;16.70;99.90
23259;DHT22;11798;51.528;7.240;2022-07-22T01:49:47;16.80;99.90
23259;DHT22;11798;51.528;7.240;2022-07-22T01:52:13;16.70;99.90
23259;DHT22;11798;51.528;7.240;2022-07-22T01:54:38;16.80;99.90
23259;DHT22;11798;51.528;7.240;2022-07-22T01:57:04;16.80;99.90
23259;DHT22;11798;51.528;7.240;2022-07-22T01:59:29;16.80;99.90
23259;DHT22;11798;51.528;7.240;2022-07-22T02:01:55;16.80;99.90
23259;DHT22;11798;51.528;7.240;2022-07-22T02:04:21;16.80;99.90
23259;DHT22;11798;51.528;7.240;2022-07-22T02:06:46;16.80;99.90
23259;DHT22;11798;51.528;7.240;2022-07-22T02:09:12;16.80;99.90
23259;DHT22;11798;51.528;7.240;2022-07-22T02:11:38;16.80;99.90
23259;DHT22;11798;51.528;7.240;2022-07-22T02:14:04;16.70;99.90
23259;DHT22;11798;51.528;7.240;2022-07-22T02:16:30;16.60;99.90
23259;DHT22;11798;51.528;7.240;2022-07-22T02:18:56;16.60;99.90
23259;DHT22;11798;51.528;7.240;2022-07-22T02:21:21;16.70;99.90
23259;DHT22;11798;51.528;7.240;2022-07-22T02:23:47;16.70;99.90
23259;DHT22;11798;51.528;7.240;2022-07-22T02:26:12;16.70;99.90
23259;DHT22;11798;51.528;7.240;2022-07-22T02:28:38;16.70;99.90
23259;DHT22;11798;51.528;7.240;2022-07-22T02:31:04;16.70;99.90
23259;DHT22;11798;51.528;7.240;2022-07-22T02:33:29;16.60;99.90
23259;DHT22;11798;51.528;7.240;2022-07-22T02:35:56;16.70;99.90
23259;DHT22;11798;51.528;7.240;2022-07-22T02:38:21;16.60;99.90
23259;DHT22;11798;51.528;7.240;2022-07-22T02:40:47;16.60;99.90
23259;DHT22;11798;51.528;7.240;2022-07-22T02:43:13;16.60;99.90
23259;DHT22;11798;51.528;7.240;2022-07-22T02:45:38;16.70;99.90
23259;DHT22;11798;51.528;7.240;2022-07-22T02:48:04;16.70;99.90
23259;DHT22;11798;51.528;7.240;2022-07-22T02:50:30;16.70;99.90
23259;DHT22;11798;51.528;7.240;2022-07-22T02:52:58;16.70;99.90
23259;DHT22;11798;51.528;7.240;2022-07-22T02:55:23;16.70;99.90
23259;DHT22;11798;51.528;7.240;2022-07-22T02:57:50;16.80;99.90
23259;DHT22;11798;51.528;7.240;2022-07-22T03:00:16;16.80;99.90
23259;DHT22;11798;51.528;7.240;2022-07-22T03:02:42;16.60;99.90
23259;DHT22;11798;51.528;7.240;2022-07-22T03:05:08;16.70;99.90
23259;DHT22;11798;51.528;7.240;2022-07-22T03:07:34;16.70;99.90
23259;DHT22;11798;51.528;7.240;2022-07-22T03:10:00;16.70;99.90
23259;DHT22;11798;51.528;7.240;2022-07-22T03:12:26;16.70;99.90
23259;DHT22;11798;51.528;7.240;2022-07-22T03:14:52;16.60;99.90
23259;DHT22;11798;51.528;7.240;2022-07-22T03:17:17;16.60;99.90
23259;DHT22;11798;51.528;7.240;2022-07-22T03:19:43;16.60;99.90
23259;DHT22;11798;51.528;7.240;2022-07-22T03:22:08;16.60;99.90
23259;DHT22;11798;51.528;7.240;2022-07-22T03:24:34;16.60;99.90
23259;DHT22;11798;51.528;7.240;2022-07-22T03:27:00;16.70;99.90
23259;DHT22;11798;51.528;7.240;2022-07-22T03:29:25;16.70;99.90
23259;DHT22;11798;51.528;7.240;2022-07-22T03:31:51;16.70;99.90
23259;DHT22;11798;51.528;7.240;2022-07-22T03:34:16;16.70;99.90
23259;DHT22;11798;51.528;7.240;2022-07-22T03:36:42;16.70;99.90
23259;DHT22;11798;51.528;7.240;2022-07-22T03:39:08;16.70;99.90
23259;DHT22;11798;51.528;7.240;2022-07-22T03:41:33;16.70;99.90
23259;DHT22;11798;51.528;7.240;2022-07-22T03:43:59;16.60;99.90
23259;DHT22;11798;51.528;7.240;2022-07-22T03:46:24;16.60;99.90
23259;DHT22;11798;51.528;7.240;2022-07-22T03:48:50;16.60;99.90
23259;DHT22;11798;51.528;7.240;2022-07-22T03:51:15;16.70;99.90
23259;DHT22;11798;51.528;7.240;2022-07-22T03:53:41;16.70;99.90
23259;DHT22;11798;51.528;7.240;2022-07-22T03:56:08;16.60;99.90
23259;DHT22;11798;51.528;7.240;2022-07-22T03:58:34;16.60;99.90
23259;DHT22;11798;51.528;7.240;2022-07-22T04:00:59;16.60;99.90
23259;DHT22;11798;51.528;7.240;2022-07-22T04:03:25;16.70;99.90
23259;DHT22;11798;51.528;7.240;2022-07-22T04:05:51;16.70;99.90
23259;DHT22;11798;51.528;7.240;2022-07-22T04:08:17;16.60;99.90
23259;DHT22;11798;51.528;7.240;2022-07-22T04:10:44;16.60;99.90
23259;DHT22;11798;51.528;7.240;2022-07-22T04:13:09;16.60;99.90
23259;DHT22;11798;51.528;7.240;2022-07-22T04:15:35;16.60;99.90
23259;DHT22;11798;51.528;7.240;2022-07-22T04:18:01;16.60;99.90
23259;DHT22;11798;51.528;7.240;2022-07-22T04:20:27;16.60;99.90
23259;DHT22;11798;51.528;7.240;2022-07-22T04:22:53;16.60;99.90
23259;DHT22;11798;51.528;7.240;2022-07-22T04:25:19;16.60;99.90
23259;DHT22;11798;51.528;7.240;2022-07-22T04:27:44;16.70;99.90
23259;DHT22;11798;51.528;7.240;2022-07-22T04:30:10;16.70;99.90
23259;DHT22;11798;51.528;7.240;2022-07-22T04:32:36;16.70;99.90
23259;DHT22;11798;51.528;7.240;2022-07-22T04:35:02;16.70;99.90
23259;DHT22;11798;51.528;7.240;2022-07-22T04:37:27;16.70;99.90
23259;DHT22;11798;51.528;7.240;2022-07-22T04:39:54;16.70;99.90
23259;DHT22;11798;51.528;7.240;2022-07-22T04:42:19;16.80;99.90
23259;DHT22;11798;51.528;7.240;2022-07-22T04:44:45;16.70;99.90
23259;DHT22;11798;51.528;7.240;2022-07-22T04:47:11;16.70;99.90
23259;DHT22;11798;51.528;7.240;2022-07-22T04:49:37;16.70;99.90
23259;DHT22;11798;51.528;7.240;2022-07-22T04:52:02;16.70;99.90
23259;DHT22;11798;51.528;7.240;2022-07-22T04:54:28;16.70;99.90
23259;DHT22;11798;51.528;7.240;2022-07-22T04:56:54;16.80;99.90
23259;DHT22;11798;51.528;7.240;2022-07-22T04:59:19;16.80;99.90
23259;DHT22;11798;51.528;7.240;2022-07-22T05:01:45;16.80;99.90
23259;DHT22;11798;51.528;7.240;2022-07-22T05:04:11;16.80;99.90
23259;DHT22;11798;51.528;7.240;2022-07-22T05:06:36;16.80;99.90
23259;DHT22;11798;51.528;7.240;2022-07-22T05:09:02;16.90;99.90
23259;DHT22;11798;51.528;7.240;2022-07-22T05:11:28;16.90;99.90
23259;DHT22;11798;51.528;7.240;2022-07-22T05:13:54;16.90;99.90
23259;DHT22;11798;51.528;7.240;2022-07-22T05:16:19;16.90;99.90
23259;DHT22;11798;51.528;7.240;2022-07-22T05:18:45;16.90;99.90
23259;DHT22;11798;51.528;7.240;2022-07-22T05:21:11;17.00;99.90
23259;DHT22;11798;51.528;7.240;2022-07-22T05:23:36;17.00;99.90
23259;DHT22;11798;51.528;7.240;2022-07-22T05:26:04;17.00;99.90
23259;DHT22;11798;51.528;7.240;2022-07-22T05:28:29;17.10;99.90
23259;DHT22;11798;51.528;7.240;2022-07-22T05:30:55;17.10;99.90
23259;DHT22;11798;51.528;7.240;2022-07-22T05:33:20;17.00;99.90
23259;DHT22;11798;51.528;7.240;2022-07-22T05:35:46;17.10;99.90
23259;DHT22;11798;51.528;7.240;2022-07-22T05:38:11;17.10;99.90
23259;DHT22;11798;51.528;7.240;2022-07-22T05:40:37;17.20;99.90
23259;DHT22;11798;51.528;7.240;2022-07-22T05:43:03;17.20;99.90
23259;DHT22;11798;51.528;7.240;2022-07-22T05:45:29;17.30;99.90
23259;DHT22;11798;51.528;7.240;2022-07-22T05:47:54;17.30;99.90
23259;DHT22;11798;51.528;7.240;2022-07-22T05:50:20;17.30;99.90
23259;DHT22;11798;51.528;7.240;2022-07-22T05:52:45;17.30;99.90
23259;DHT22;11798;51.528;7.240;2022-07-22T05:55:11;17.20;99.90
23259;DHT22;11798;51.528;7.240;2022-07-22T05:57:37;17.20;99.90
23259;DHT22;11798;51.528;7.240;2022-07-22T06:00:04;17.30;99.90
23259;DHT22;11798;51.528;7.240;2022-07-22T06:02:30;17.30;99.90
23259;DHT22;11798;51.528;7.240;2022-07-22T06:04:55;17.30;99.90
23259;DHT22;11798;51.528;7.240;2022-07-22T06:07:21;17.30;99.90
23259;DHT22;11798;51.528;7.240;2022-07-22T06:09:47;17.30;99.90
23259;DHT22;11798;51.528;7.240;2022-07-22T06:12:12;17.30;99.90
23259;DHT22;11798;51.528;7.240;2022-07-22T06:14:38;17.50;99.90
23259;DHT22;11798;51.528;7.240;2022-07-22T06:17:03;17.50;99.90
23259;DHT22;11798;51.528;7.240;2022-07-22T06:19:29;17.40;99.90
23259;DHT22;11798;51.528;7.240;2022-07-22T06:21:56;17.50;99.90
23259;DHT22;11798;51.528;7.240;2022-07-22T06:24:21;17.50;99.90
23259;DHT22;11798;51.528;7.240;2022-07-22T06:26:47;17.60;99.90
23259;DHT22;11798;51.528;7.240;2022-07-22T06:29:13;17.70;99.90
23259;DHT22;11798;51.528;7.240;2022-07-22T06:31:38;17.70;99.90
23259;DHT22;11798;51.528;7.240;2022-07-22T06:34:04;17.70;99.90
23259;DHT22;11798;51.528;7.240;2022-07-22T06:36:32;17.80;99.90
23259;DHT22;11798;51.528;7.240;2022-07-22T06:38:57;17.80;99.90
23259;DHT22;11798;51.528;7.240;2022-07-22T06:41:23;17.80;99.90
23259;DHT22;11798;51.528;7.240;2022-07-22T06:43:48;17.80;99.90
23259;DHT22;11798;51.528;7.240;2022-07-22T06:46:14;17.80;99.90
23259;DHT22;11798;51.528;7.240;2022-07-22T06:48:40;17.90;99.90
23259;DHT22;11798;51.528;7.240;2022-07-22T06:51:05;17.80;99.90
23259;DHT22;11798;51.528;7.240;2022-07-22T06:53:32;17.90;99.90
23259;DHT22;11798;51.528;7.240;2022-07-22T06:55:58;17.90;99.90
23259;DHT22;11798;51.528;7.240;2022-07-22T06:58:23;17.90;99.90
23259;DHT22;11798;51.528;7.240;2022-07-22T07:00:49;17.90;99.90
23259;DHT22;11798;51.528;7.240;2022-07-22T07:03:15;17.90;99.90
23259;DHT22;11798;51.528;7.240;2022-07-22T07:05:41;17.90;99.90
23259;DHT22;11798;51.528;7.240;2022-07-22T07:08:06;18.00;99.90
23259;DHT22;11798;51.528;7.240;2022-07-22T07:10:32;17.90;99.90
23259;DHT22;11798;51.528;7.240;2022-07-22T07:12:58;18.00;99.90
23259;DHT22;11798;51.528;7.240;2022-07-22T07:15:26;18.10;99.90
23259;DHT22;11798;51.528;7.240;2022-07-22T07:17:54;18.10;99.90
23259;DHT22;11798;51.528;7.240;2022-07-22T07:20:20;18.10;99.90
23259;DHT22;11798;51.528;7.240;2022-07-22T07:22:46;18.20;99.90
23259;DHT22;11798;51.528;7.240;2022-07-22T07:25:12;18.20;99.90
23259;DHT22;11798;51.528;7.240;2022-07-22T07:27:37;18.20;99.90
23259;DHT22;11798;51.528;7.240;2022-07-22T07:30:04;18.20;99.90
23259;DHT22;11798;51.528;7.240;2022-07-22T07:32:30;18.20;99.90
23259;DHT22;11798;51.528;7.240;2022-07-22T07:34:56;18.40;99.90
23259;DHT22;11798;51.528;7.240;2022-07-22T07:37:21;18.50;99.90
23259;DHT22;11798;51.528;7.240;2022-07-22T07:39:47;18.40;99.90
23259;DHT22;11798;51.528;7.240;2022-07-22T07:42:13;18.40;99.90
23259;DHT22;11798;51.528;7.240;2022-07-22T07:44:39;18.40;99.90
23259;DHT22;11798;51.528;7.240;2022-07-22T07:47:04;18.30;99.90
23259;DHT22;11798;51.528;7.240;2022-07-22T07:49:30;18.40;99.90
23259;DHT22;11798;51.528;7.240;2022-07-22T07:51:56;18.50;99.90
23259;DHT22;11798;51.528;7.240;2022-07-22T07:54:22;18.60;99.90
23259;DHT22;11798;51.528;7.240;2022-07-22T07:56:47;18.40;99.90
23259;DHT22;11798;51.528;7.240;2022-07-22T07:59:13;18.50;99.90
23259;DHT22;11798;51.528;7.240;2022-07-22T08:01:39;18.50;99.90
23259;DHT22;11798;51.528;7.240;2022-07-22T08:04:05;18.70;99.90
23259;DHT22;11798;51.528;7.240;2022-07-22T08:06:30;18.60;99.90
23259;DHT22;11798;51.528;7.240;2022-07-22T08:08:56;18.60;99.90
23259;DHT22;11798;51.528;7.240;2022-07-22T08:11:22;18.60;99.90
23259;DHT22;11798;51.528;7.240;2022-07-22T08:13:48;18.60;99.90
23259;DHT22;11798;51.528;7.240;2022-07-22T08:16:14;18.60;99.90
23259;DHT22;11798;51.528;7.240;2022-07-22T08:18:39;18.70;99.90
23259;DHT22;11798;51.528;7.240;2022-07-22T08:21:06;18.80;99.90
23259;DHT22;11798;51.528;7.240;2022-07-22T08:23:32;18.80;99.90
23259;DHT22;11798;51.528;7.240;2022-07-22T08:25:57;18.80;99.90
23259;DHT22;11798;51.528;7.240;2022-07-22T08:28:23;18.70;99.90
23259;DHT22;11798;51.528;7.240;2022-07-22T08:30:49;18.80;99.90
23259;DHT22;11798;51.528;7.240;2022-07-22T08:33:14;18.80;99.90
23259;DHT22;11798;51.528;7.240;2022-07-22T08:35:41;18.90;99.90
23259;DHT22;11798;51.528;7.240;2022-07-22T08:38:07;18.90;99.90
23259;DHT22;11798;51.528;7.240;2022-07-22T08:40:32;18.80;99.90
23259;DHT22;11798;51.528;7.240;2022-07-22T08:42:58;18.90;99.90
23259;DHT22;11798;51.528;7.240;2022-07-22T08:45:29;18.90;99.90
23259;DHT22;11798;51.528;7.240;2022-07-22T08:47:55;18.90;99.90
23259;DHT22;11798;51.528;7.240;2022-07-22T08:50:21;18.90;99.90
23259;DHT22;11798;51.528;7.240;2022-07-22T08:52:47;18.80;99.90
23259;DHT22;11798;51.528;7.240;2022-07-22T08:55:13;18.70;99.90
23259;DHT22;11798;51.528;7.240;2022-07-22T08:57:47;18.80;99.90
23259;DHT22;11798;51.528;7.240;2022-07-22T09:00:18;18.80;99.90
23259;DHT22;11798;51.528;7.240;2022-07-22T09:02:44;18.90;99.90
23259;DHT22;11798;51.528;7.240;2022-07-22T09:05:12;18.90;99.90
23259;DHT22;11798;51.528;7.240;2022-07-22T09:07:41;18.80;99.90
23259;DHT22;11798;51.528;7.240;2022-07-22T09:10:18;18.70;99.90
23259;DHT22;11798;51.528;7.240;2022-07-22T09:12:58;18.90;99.90
23259;DHT22;11798;51.528;7.240;2022-07-22T09:15:29;18.80;99.90
23259;DHT22;11798;51.528;7.240;2022-07-22T09:17:56;18.80;99.90
23259;DHT22;11798;51.528;7.240;2022-07-22T09:20:22;18.80;99.90
23259;DHT22;11798;51.528;7.240;2022-07-22T09:22:48;18.80;99.90
23259;DHT22;11798;51.528;7.240;2022-07-22T09:25:34;19.00;99.90
23259;DHT22;11798;51.528;7.240;2022-07-22T09:30:33;19.20;99.90
23259;DHT22;11798;51.528;7.240;2022-07-22T09:32:59;19.20;99.90
23259;DHT22;11798;51.528;7.240;2022-07-22T09:35:25;19.20;99.90
23259;DHT22;11798;51.528;7.240;2022-07-22T09:38:02;19.20;99.90
23259;DHT22;11798;51.528;7.240;2022-07-22T09:40:36;19.20;99.90
23259;DHT22;11798;51.528;7.240;2022-07-22T09:43:05;19.10;99.90
23259;DHT22;11798;51.528;7.240;2022-07-22T09:45:33;19.20;99.90
23259;DHT22;11798;51.528;7.240;2022-07-22T09:48:00;19.20;99.90
23259;DHT22;11798;51.528;7.240;2022-07-22T09:50:27;19.30;99.90
23259;DHT22;11798;51.528;7.240;2022-07-22T09:52:55;19.40;99.90
23259;DHT22;11798;51.528;7.240;2022-07-22T09:55:23;19.50;99.90
23259;DHT22;11798;51.528;7.240;2022-07-22T09:57:50;19.50;99.90
23259;DHT22;11798;51.528;7.240;2022-07-22T10:00:18;19.60;99.90
23259;DHT22;11798;51.528;7.240;2022-07-22T10:05:19;19.60;99.90
23259;DHT22;11798;51.528;7.240;2022-07-22T10:07:46;19.70;99.90
23259;DHT22;11798;51.528;7.240;2022-07-22T10:10:18;19.70;99.90
23259;DHT22;11798;51.528;7.240;2022-07-22T10:12:46;19.70;99.90
23259;DHT22;11798;51.528;7.240;2022-07-22T10:15:13;19.80;99.90
23259;DHT22;11798;51.528;7.240;2022-07-22T10:17:44;19.90;99.90
23259;DHT22;11798;51.528;7.240;2022-07-22T10:20:11;19.90;99.90
23259;DHT22;11798;51.528;7.240;2022-07-22T10:25:08;20.10;99.90
23259;DHT22;11798;51.528;7.240;2022-07-22T10:30:10;20.10;99.90
23259;DHT22;11798;51.528;7.240;2022-07-22T10:32:36;20.10;99.90
23259;DHT22;11798;51.528;7.240;2022-07-22T10:43:04;20.40;99.90
23259;DHT22;11798;51.528;7.240;2022-07-22T10:48:16;20.10;99.90
23259;DHT22;11798;51.528;7.240;2022-07-22T10:50:46;20.20;99.90
23259;DHT22;11798;51.528;7.240;2022-07-22T10:56:06;20.10;99.90
23259;DHT22;11798;51.528;7.240;2022-07-22T11:01:05;20.10;99.90
23259;DHT22;11798;51.528;7.240;2022-07-22T11:03:33;20.10;99.90
23259;DHT22;11798;51.528;7.240;2022-07-22T11:08:40;20.20;99.90
23259;DHT22;11798;51.528;7.240;2022-07-22T11:11:06;20.20;99.90
23259;DHT22;11798;51.528;7.240;2022-07-22T11:13:37;20.50;99.90
23259;DHT22;11798;51.528;7.240;2022-07-22T11:16:23;20.60;99.90
23259;DHT22;11798;51.528;7.240;2022-07-22T11:21:24;20.40;99.90
23259;DHT22;11798;51.528;7.240;2022-07-22T11:23:52;20.70;99.90
23259;DHT22;11798;51.528;7.240;2022-07-22T11:26:24;20.90;99.90
23259;DHT22;11798;51.528;7.240;2022-07-22T11:28:50;21.00;99.90
23259;DHT22;11798;51.528;7.240;2022-07-22T11:31:18;21.10;99.90
23259;DHT22;11798;51.528;7.240;2022-07-22T11:33:46;21.30;99.90
23259;DHT22;11798;51.528;7.240;2022-07-22T11:36:12;21.20;99.90
23259;DHT22;11798;51.528;7.240;2022-07-22T11:38:42;21.00;99.90
23259;DHT22;11798;51.528;7.240;2022-07-22T11:41:08;21.10;99.90
23259;DHT22;11798;51.528;7.240;2022-07-22T11:46:10;21.30;99.90
23259;DHT22;11798;51.528;7.240;2022-07-22T11:48:36;21.40;99.90
23259;DHT22;11798;51.528;7.240;2022-07-22T11:51:04;21.50;99.90
23259;DHT22;11798;51.528;7.240;2022-07-22T11:53:30;21.60;99.90
23259;DHT22;11798;51.528;7.240;2022-07-22T11:55:59;21.40;99.90
23259;DHT22;11798;51.528;7.240;2022-07-22T12:01:00;21.70;99.90
23259;DHT22;11798;51.528;7.240;2022-07-22T12:03:26;21.60;99.90
23259;DHT22;11798;51.528;7.240;2022-07-22T12:05:51;21.50;99.90
23259;DHT22;11798;51.528;7.240;2022-07-22T12:08:17;21.50;99.90
23259;DHT22;11798;51.528;7.240;2022-07-22T12:10:43;21.30;99.90
23259;DHT22;11798;51.528;7.240;2022-07-22T12:13:11;21.40;99.90
23259;DHT22;11798;51.528;7.240;2022-07-22T12:15:37;21.50;99.90
23259;DHT22;11798;51.528;7.240;2022-07-22T12:18:21;21.50;99.90
23259;DHT22;11798;51.528;7.240;2022-07-22T12:20:48;21.50;99.90
23259;DHT22;11798;51.528;7.240;2022-07-22T12:23:14;21.40;99.90
23259;DHT22;11798;51.528;7.240;2022-07-22T12:26:02;21.50;99.90
23259;DHT22;11798;51.528;7.240;2022-07-22T12:28:28;21.30;99.90
23259;DHT22;11798;51.528;7.240;2022-07-22T12:30:55;21.50;99.90
23259;DHT22;11798;51.528;7.240;2022-07-22T12:33:21;21.30;99.90
23259;DHT22;11798;51.528;7.240;2022-07-22T12:35:59;21.60;99.90
23259;DHT22;11798;51.528;7.240;2022-07-22T12:38:25;21.70;99.90
23259;DHT22;11798;51.528;7.240;2022-07-22T12:40:51;21.80;99.90
23259;DHT22;11798;51.528;7.240;2022-07-22T12:43:17;22.10;99.90
23259;DHT22;11798;51.528;7.240;2022-07-22T12:45:42;22.00;99.90
23259;DHT22;11798;51.528;7.240;2022-07-22T12:48:09;22.10;99.90
23259;DHT22;11798;51.528;7.240;2022-07-22T12:50:38;22.30;99.90
23259;DHT22;11798;51.528;7.240;2022-07-22T12:53:13;22.10;99.90
23259;DHT22;11798;51.528;7.240;2022-07-22T12:55:42;22.10;99.90
23259;DHT22;11798;51.528;7.240;2022-07-22T12:58:08;22.10;99.90
23259;DHT22;11798;51.528;7.240;2022-07-22T13:00:36;22.30;99.90
23259;DHT22;11798;51.528;7.240;2022-07-22T13:03:02;22.30;99.90
23259;DHT22;11798;51.528;7.240;2022-07-22T13:05:28;22.30;99.90
23259;DHT22;11798;51.528;7.240;2022-07-22T13:07:54;22.20;99.90
23259;DHT22;11798;51.528;7.240;2022-07-22T13:10:22;22.00;99.90
23259;DHT22;11798;51.528;7.240;2022-07-22T13:12:48;22.10;99.90
23259;DHT22;11798;51.528;7.240;2022-07-22T13:15:14;22.10;99.90
23259;DHT22;11798;51.528;7.240;2022-07-22T13:17:40;22.00;99.90
23259;DHT22;11798;51.528;7.240;2022-07-22T13:20:08;22.10;99.90
23259;DHT22;11798;51.528;7.240;2022-07-22T13:22:35;22.10;99.90
23259;DHT22;11798;51.528;7.240;2022-07-22T13:25:01;22.20;99.90
23259;DHT22;11798;51.528;7.240;2022-07-22T13:27:26;22.20;99.90
23259;DHT22;11798;51.528;7.240;2022-07-22T13:29:52;22.20;99.90
23259;DHT22;11798;51.528;7.240;2022-07-22T13:32:18;22.50;99.90
23259;DHT22;11798;51.528;7.240;2022-07-22T13:34:44;22.30;99.90
23259;DHT22;11798;51.528;7.240;2022-07-22T13:37:09;22.40;99.90
23259;DHT22;11798;51.528;7.240;2022-07-22T13:39:35;22.60;99.90
23259;DHT22;11798;51.528;7.240;2022-07-22T13:42:01;22.70;99.90
23259;DHT22;11798;51.528;7.240;2022-07-22T13:44:27;22.80;99.90
23259;DHT22;11798;51.528;7.240;2022-07-22T13:46:52;23.00;99.90
23259;DHT22;11798;51.528;7.240;2022-07-22T13:49:18;23.10;99.90
23259;DHT22;11798;51.528;7.240;2022-07-22T13:51:44;23.40;99.90
23259;DHT22;11798;51.528;7.240;2022-07-22T13:54:09;23.40;99.90
23259;DHT22;11798;51.528;7.240;2022-07-22T13:56:35;23.60;99.90
23259;DHT22;11798;51.528;7.240;2022-07-22T13:59:01;23.70;99.90
23259;DHT22;11798;51.528;7.240;2022-07-22T14:01:28;23.70;99.90
23259;DHT22;11798;51.528;7.240;2022-07-22T14:03:53;23.70;99.90
23259;DHT22;11798;51.528;7.240;2022-07-22T14:06:19;23.70;99.90
23259;DHT22;11798;51.528;7.240;2022-07-22T14:08:45;23.80;99.90
23259;DHT22;11798;51.528;7.240;2022-07-22T14:11:10;23.80;99.90
23259;DHT22;11798;51.528;7.240;2022-07-22T14:13:36;23.60;99.90
23259;DHT22;11798;51.528;7.240;2022-07-22T14:16:01;23.30;99.90
23259;DHT22;11798;51.528;7.240;2022-07-22T14:18:47;23.20;99.90
23259;DHT22;11798;51.528;7.240;2022-07-22T14:21:13;23.70;99.90
23259;DHT22;11798;51.528;7.240;2022-07-22T14:23:39;23.80;99.90
23259;DHT22;11798;51.528;7.240;2022-07-22T14:26:04;24.20;99.90
23259;DHT22;11798;51.528;7.240;2022-07-22T14:28:30;24.30;99.90
23259;DHT22;11798;51.528;7.240;2022-07-22T14:30:57;24.10;99.90
23259;DHT22;11798;51.528;7.240;2022-07-22T14:33:22;24.20;99.90
23259;DHT22;11798;51.528;7.240;2022-07-22T14:35:48;24.10;99.90
23259;DHT22;11798;51.528;7.240;2022-07-22T14:38:13;24.00;99.90
23259;DHT22;11798;51.528;7.240;2022-07-22T14:40:39;23.90;99.90
23259;DHT22;11798;51.528;7.240;2022-07-22T14:43:05;23.70;99.90
23259;DHT22;11798;51.528;7.240;2022-07-22T14:45:30;24.00;99.90
23259;DHT22;11798;51.528;7.240;2022-07-22T14:47:56;23.80;99.90
23259;DHT22;11798;51.528;7.240;2022-07-22T14:50:21;24.10;99.90
23259;DHT22;11798;51.528;7.240;2022-07-22T14:52:47;23.70;99.90
23259;DHT22;11798;51.528;7.240;2022-07-22T14:55:13;23.70;99.90
23259;DHT22;11798;51.528;7.240;2022-07-22T14:57:38;23.90;99.90
23259;DHT22;11798;51.528;7.240;2022-07-22T15:00:05;24.20;99.90
23259;DHT22;11798;51.528;7.240;2022-07-22T15:02:31;24.10;99.90
23259;DHT22;11798;51.528;7.240;2022-07-22T15:04:56;24.30;99.90
23259;DHT22;11798;51.528;7.240;2022-07-22T15:07:22;24.60;99.90
23259;DHT22;11798;51.528;7.240;2022-07-22T15:09:48;24.50;99.90
23259;DHT22;11798;51.528;7.240;2022-07-22T15:12:13;24.50;99.90
23259;DHT22;11798;51.528;7.240;2022-07-22T15:14:39;24.80;99.90
23259;DHT22;11798;51.528;7.240;2022-07-22T15:17:05;24.70;99.90
23259;DHT22;11798;51.528;7.240;2022-07-22T15:19:30;24.60;99.90
23259;DHT22;11798;51.528;7.240;2022-07-22T15:21:56;24.70;99.90
23259;DHT22;11798;51.528;7.240;2022-07-22T15:24:22;24.70;99.90
23259;DHT22;11798;51.528;7.240;2022-07-22T15:26:47;24.80;99.90
23259;DHT22;11798;51.528;7.240;2022-07-22T15:29:13;24.90;99.90
23259;DHT22;11798;51.528;7.240;2022-07-22T15:31:39;24.90;99.90
23259;DHT22;11798;51.528;7.240;2022-07-22T15:34:04;25.00;99.90
23259;DHT22;11798;51.528;7.240;2022-07-22T15:36:30;25.00;99.90
23259;DHT22;11798;51.528;7.240;2022-07-22T15:38:56;24.80;99.90
23259;DHT22;11798;51.528;7.240;2022-07-22T15:41:21;24.50;99.90
23259;DHT22;11798;51.528;7.240;2022-07-22T15:43:47;24.40;99.90
23259;DHT22;11798;51.528;7.240;2022-07-22T15:46:13;24.50;99.90
23259;DHT22;11798;51.528;7.240;2022-07-22T15:48:38;24.50;99.90
23259;DHT22;11798;51.528;7.240;2022-07-22T15:51:05;24.40;99.90
23259;DHT22;11798;51.528;7.240;2022-07-22T15:53:31;24.40;99.90
23259;DHT22;11798;51.528;7.240;2022-07-22T15:55:57;24.20;99.90
23259;DHT22;11798;51.528;7.240;2022-07-22T15:58:23;24.10;99.90
23259;DHT22;11798;51.528;7.240;2022-07-22T16:01:07;23.90;99.90
23259;DHT22;11798;51.528;7.240;2022-07-22T16:03:33;23.80;99.90